sensor_id;sensor_type;location;lat;lon;timestamp;temperature;humidity
25360;DHT22;13311;51.386;0.016;2024-01-16T00:00:35;1.00;91.20
25360;DHT22;13311;51.386;0.016;2024-01-16T00:05:37;0.90;91.30
25360;DHT22;13311;51.386;0.016;2024-01-16T00:10:38;0.90;91.20
25360;DHT22;13311;51.386;0.016;2024-01-16T00:15:38;0.90;91.20
25360;DHT22;13311;51.386;0.016;2024-01-16T00:20:41;0.90;91.20
25360;DHT22;13311;51.386;0.016;2024-01-16T00:25:42;0.90;91.00
25360;DHT22;13311;51.386;0.016;2024-01-16T00:30:43;0.90;91.10
25360;DHT22;13311;51.386;0.016;2024-01-16T00:35:44;0.80;91.10
25360;DHT22;13311;51.386;0.016;2024-01-16T00:40:45;0.80;91.20
25360;DHT22;13311;51.386;0.016;2024-01-16T00:45:46;0.80;91.10
25360;DHT22;13311;51.386;0.016;2024-01-16T00:50:48;0.80;91.20
25360;DHT22;13311;51.386;0.016;2024-01-16T00:55:49;0.70;91.30
25360;DHT22;13311;51.386;0.016;2024-01-16T01:00:52;0.70;91.40
25360;DHT22;13311;51.386;0.016;2024-01-16T01:05:53;0.70;91.50
25360;DHT22;13311;51.386;0.016;2024-01-16T01:10:55;0.70;91.40
25360;DHT22;13311;51.386;0.016;2024-01-16T01:15:56;0.80;91.50
25360;DHT22;13311;51.386;0.016;2024-01-16T01:20:56;0.80;91.60
25360;DHT22;13311;51.386;0.016;2024-01-16T01:25:57;0.70;91.60
25360;DHT22;13311;51.386;0.016;2024-01-16T01:30:58;0.70;91.60
25360;DHT22;13311;51.386;0.016;2024-01-16T01:35:59;0.80;91.60
25360;DHT22;13311;51.386;0.016;2024-01-16T01:40:59;0.80;91.60
25360;DHT22;13311;51.386;0.016;2024-01-16T01:46:10;0.90;91.60
25360;DHT22;13311;51.386;0.016;2024-01-16T01:51:19;0.90;91.50
25360;DHT22;13311;51.386;0.016;2024-01-16T01:56:20;0.90;91.60
25360;DHT22;13311;51.386;0.016;2024-01-16T02:01:26;0.80;91.80
25360;DHT22;13311;51.386;0.016;2024-01-16T02:06:29;0.90;91.80
25360;DHT22;13311;51.386;0.016;2024-01-16T02:11:30;0.90;91.70
25360;DHT22;13311;51.386;0.016;2024-01-16T02:16:36;0.90;91.70
25360;DHT22;13311;51.386;0.016;2024-01-16T02:21:47;0.90;91.70
25360;DHT22;13311;51.386;0.016;2024-01-16T02:26:51;0.90;91.70
25360;DHT22;13311;51.386;0.016;2024-01-16T02:31:52;0.80;91.80
25360;DHT22;13311;51.386;0.016;2024-01-16T02:36:55;0.90;91.80
25360;DHT22;13311;51.386;0.016;2024-01-16T02:41:56;0.80;91.90
25360;DHT22;13311;51.386;0.016;2024-01-16T02:46:58;0.80;91.90
25360;DHT22;13311;51.386;0.016;2024-01-16T02:51:59;0.90;91.90
25360;DHT22;13311;51.386;0.016;2024-01-16T02:57:00;0.90;91.80
25360;DHT22;13311;51.386;0.016;2024-01-16T03:02:00;0.90;91.80
25360;DHT22;13311;51.386;0.016;2024-01-16T03:07:03;0.90;91.70
25360;DHT22;13311;51.386;0.016;2024-01-16T03:12:05;0.80;91.70
25360;DHT22;13311;51.386;0.016;2024-01-16T03:17:09;0.80;91.70
25360;DHT22;13311;51.386;0.016;2024-01-16T03:22:11;0.70;91.70
25360;DHT22;13311;51.386;0.016;2024-01-16T03:27:12;0.70;91.80
25360;DHT22;13311;51.386;0.016;2024-01-16T03:32:13;0.70;91.80
25360;DHT22;13311;51.386;0.016;2024-01-16T03:37:14;0.60;91.90
25360;DHT22;13311;51.386;0.016;2024-01-16T03:42:15;0.60;92.00
25360;DHT22;13311;51.386;0.016;2024-01-16T03:47:16;0.60;92.10
25360;DHT22;13311;51.386;0.016;2024-01-16T03:52:17;0.60;92.20
25360;DHT22;13311;51.386;0.016;2024-01-16T03:57:18;0.60;92.20
25360;DHT22;13311;51.386;0.016;2024-01-16T04:02:19;0.60;92.20
25360;DHT22;13311;51.386;0.016;2024-01-16T04:07:23;0.60;92.10
25360;DHT22;13311;51.386;0.016;2024-01-16T04:12:25;0.50;92.10
25360;DHT22;13311;51.386;0.016;2024-01-16T04:17:26;0.50;92.20
25360;DHT22;13311;51.386;0.016;2024-01-16T04:22:27;0.40;92.40
25360;DHT22;13311;51.386;0.016;2024-01-16T04:27:31;0.40;92.40
25360;DHT22;13311;51.386;0.016;2024-01-16T04:32:32;0.40;92.50
25360;DHT22;13311;51.386;0.016;2024-01-16T04:37:33;0.40;92.50
25360;DHT22;13311;51.386;0.016;2024-01-16T04:42:33;0.40;92.60
25360;DHT22;13311;51.386;0.016;2024-01-16T04:47:35;0.40;92.60
25360;DHT22;13311;51.386;0.016;2024-01-16T04:52:36;0.40;92.60
25360;DHT22;13311;51.386;0.016;2024-01-16T04:57:36;0.50;92.70
25360;DHT22;13311;51.386;0.016;2024-01-16T05:02:37;0.40;92.70
25360;DHT22;13311;51.386;0.016;2024-01-16T05:07:39;0.40;92.60
25360;DHT22;13311;51.386;0.016;2024-01-16T05:12:40;0.40;92.70
25360;DHT22;13311;51.386;0.016;2024-01-16T05:17:41;0.40;92.80
25360;DHT22;13311;51.386;0.016;2024-01-16T05:22:42;0.30;92.80
25360;DHT22;13311;51.386;0.016;2024-01-16T05:27:43;0.30;92.90
25360;DHT22;13311;51.386;0.016;2024-01-16T05:32:44;0.30;93.00
25360;DHT22;13311;51.386;0.016;2024-01-16T05:37:46;0.20;93.10
25360;DHT22;13311;51.386;0.016;2024-01-16T05:42:46;0.20;93.20
25360;DHT22;13311;51.386;0.016;2024-01-16T05:47:47;0.10;93.20
25360;DHT22;13311;51.386;0.016;2024-01-16T05:52:48;0.10;93.30
25360;DHT22;13311;51.386;0.016;2024-01-16T05:57:49;0.10;93.30
25360;DHT22;13311;51.386;0.016;2024-01-16T06:02:49;0.10;93.40
25360;DHT22;13311;51.386;0.016;2024-01-16T06:07:50;0.10;93.50
25360;DHT22;13311;51.386;0.016;2024-01-16T06:12:51;0.10;93.50
25360;DHT22;13311;51.386;0.016;2024-01-16T06:17:52;0.10;93.40
25360;DHT22;13311;51.386;0.016;2024-01-16T06:22:53;0.10;93.40
25360;DHT22;13311;51.386;0.016;2024-01-16T06:27:54;0.10;93.40
25360;DHT22;13311;51.386;0.016;2024-01-16T06:32:55;0.10;93.60
25360;DHT22;13311;51.386;0.016;2024-01-16T06:37:56;0.20;93.80
25360;DHT22;13311;51.386;0.016;2024-01-16T06:42:57;0.20;93.80
25360;DHT22;13311;51.386;0.016;2024-01-16T06:47:58;0.30;93.90
25360;DHT22;13311;51.386;0.016;2024-01-16T06:53:01;0.40;93.90
25360;DHT22;13311;51.386;0.016;2024-01-16T06:58:02;0.50;93.80
25360;DHT22;13311;51.386;0.016;2024-01-16T07:03:03;0.50;93.70
25360;DHT22;13311;51.386;0.016;2024-01-16T07:08:04;0.60;93.60
25360;DHT22;13311;51.386;0.016;2024-01-16T07:13:05;0.60;93.60
25360;DHT22;13311;51.386;0.016;2024-01-16T07:18:07;0.70;93.50
25360;DHT22;13311;51.386;0.016;2024-01-16T07:23:08;0.70;93.50
25360;DHT22;13311;51.386;0.016;2024-01-16T07:28:09;0.70;93.50
25360;DHT22;13311;51.386;0.016;2024-01-16T07:33:09;0.60;93.40
25360;DHT22;13311;51.386;0.016;2024-01-16T07:38:11;0.60;93.50
25360;DHT22;13311;51.386;0.016;2024-01-16T07:43:12;0.50;93.60
25360;DHT22;13311;51.386;0.016;2024-01-16T07:48:13;0.50;93.60
25360;DHT22;13311;51.386;0.016;2024-01-16T07:53:13;0.50;93.60
25360;DHT22;13311;51.386;0.016;2024-01-16T07:58:15;0.40;93.70
25360;DHT22;13311;51.386;0.016;2024-01-16T08:03:16;0.40;93.80
25360;DHT22;13311;51.386;0.016;2024-01-16T08:08:17;0.40;93.80
25360;DHT22;13311;51.386;0.016;2024-01-16T08:13:17;0.40;93.90
25360;DHT22;13311;51.386;0.016;2024-01-16T08:18:18;0.40;94.00
25360;DHT22;13311;51.386;0.016;2024-01-16T08:23:19;0.40;94.00
25360;DHT22;13311;51.386;0.016;2024-01-16T08:28:21;0.40;94.00
25360;DHT22;13311;51.386;0.016;2024-01-16T08:33:24;0.40;94.00
25360;DHT22;13311;51.386;0.016;2024-01-16T08:38:25;0.40;93.90
25360;DHT22;13311;51.386;0.016;2024-01-16T08:43:26;0.40;94.00
25360;DHT22;13311;51.386;0.016;2024-01-16T08:48:26;0.40;94.00
25360;DHT22;13311;51.386;0.016;2024-01-16T08:53:27;0.50;94.10
25360;DHT22;13311;51.386;0.016;2024-01-16T08:58:28;0.50;94.20
25360;DHT22;13311;51.386;0.016;2024-01-16T09:03:29;0.60;94.30
25360;DHT22;13311;51.386;0.016;2024-01-16T09:08:30;0.60;94.30
25360;DHT22;13311;51.386;0.016;2024-01-16T09:13:30;0.60;94.80
25360;DHT22;13311;51.386;0.016;2024-01-16T09:18:31;0.70;94.70
25360;DHT22;13311;51.386;0.016;2024-01-16T09:23:32;1.00;94.70
25360;DHT22;13311;51.386;0.016;2024-01-16T09:28:33;1.40;94.50
25360;DHT22;13311;51.386;0.016;2024-01-16T09:33:34;1.80;94.10
25360;DHT22;13311;51.386;0.016;2024-01-16T09:38:35;2.20;93.60
25360;DHT22;13311;51.386;0.016;2024-01-16T09:43:37;2.60;93.10
25360;DHT22;13311;51.386;0.016;2024-01-16T09:48:38;3.00;92.40
25360;DHT22;13311;51.386;0.016;2024-01-16T09:53:42;3.30;91.90
25360;DHT22;13311;51.386;0.016;2024-01-16T09:58:43;3.70;91.50
25360;DHT22;13311;51.386;0.016;2024-01-16T10:03:45;4.00;90.90
25360;DHT22;13311;51.386;0.016;2024-01-16T10:08:46;4.20;90.50
25360;DHT22;13311;51.386;0.016;2024-01-16T10:13:47;4.00;90.70
25360;DHT22;13311;51.386;0.016;2024-01-16T10:18:48;4.00;90.90
25360;DHT22;13311;51.386;0.016;2024-01-16T10:23:50;4.40;90.50
25360;DHT22;13311;51.386;0.016;2024-01-16T10:28:51;5.00;90.10
25360;DHT22;13311;51.386;0.016;2024-01-16T10:34:19;5.40;88.40
25360;DHT22;13311;51.386;0.016;2024-01-16T10:39:22;5.70;86.40
25360;DHT22;13311;51.386;0.016;2024-01-16T10:44:24;6.00;86.50
25360;DHT22;13311;51.386;0.016;2024-01-16T10:49:24;6.10;85.00
25360;DHT22;13311;51.386;0.016;2024-01-16T10:54:25;6.20;84.40
25360;DHT22;13311;51.386;0.016;2024-01-16T10:59:34;6.50;83.70
25360;DHT22;13311;51.386;0.016;2024-01-16T11:04:42;6.80;83.30
25360;DHT22;13311;51.386;0.016;2024-01-16T11:09:44;7.00;81.50
25360;DHT22;13311;51.386;0.016;2024-01-16T11:14:46;7.30;80.90
25360;DHT22;13311;51.386;0.016;2024-01-16T11:19:51;7.50;81.00
25360;DHT22;13311;51.386;0.016;2024-01-16T11:25:11;7.60;79.00
25360;DHT22;13311;51.386;0.016;2024-01-16T11:30:29;7.70;78.20
25360;DHT22;13311;51.386;0.016;2024-01-16T11:35:37;7.70;76.60
25360;DHT22;13311;51.386;0.016;2024-01-16T11:40:40;7.70;76.90
25360;DHT22;13311;51.386;0.016;2024-01-16T11:45:52;7.60;76.50
25360;DHT22;13311;51.386;0.016;2024-01-16T11:50:56;7.50;76.80
25360;DHT22;13311;51.386;0.016;2024-01-16T12:01:19;7.70;77.00
25360;DHT22;13311;51.386;0.016;2024-01-16T12:06:20;7.70;77.90
25360;DHT22;13311;51.386;0.016;2024-01-16T12:11:24;7.90;78.20
25360;DHT22;13311;51.386;0.016;2024-01-16T12:16:25;7.90;77.20
25360;DHT22;13311;51.386;0.016;2024-01-16T12:21:32;7.90;76.70
25360;DHT22;13311;51.386;0.016;2024-01-16T12:26:34;8.00;76.00
25360;DHT22;13311;51.386;0.016;2024-01-16T12:31:35;8.00;75.90
25360;DHT22;13311;51.386;0.016;2024-01-16T12:36:36;8.20;75.60
25360;DHT22;13311;51.386;0.016;2024-01-16T12:41:42;8.30;75.60
25360;DHT22;13311;51.386;0.016;2024-01-16T12:46:54;8.40;74.90
25360;DHT22;13311;51.386;0.016;2024-01-16T12:52:18;8.40;74.20
25360;DHT22;13311;51.386;0.016;2024-01-16T12:57:20;8.50;74.50
25360;DHT22;13311;51.386;0.016;2024-01-16T13:02:25;8.40;74.80
25360;DHT22;13311;51.386;0.016;2024-01-16T13:07:26;8.30;73.90
25360;DHT22;13311;51.386;0.016;2024-01-16T13:12:27;8.40;75.30
25360;DHT22;13311;51.386;0.016;2024-01-16T13:17:34;8.30;74.10
25360;DHT22;13311;51.386;0.016;2024-01-16T13:22:35;8.10;74.80
25360;DHT22;13311;51.386;0.016;2024-01-16T13:27:36;8.20;77.50
25360;DHT22;13311;51.386;0.016;2024-01-16T13:32:37;8.30;75.80
25360;DHT22;13311;51.386;0.016;2024-01-16T13:37:37;8.30;75.30
25360;DHT22;13311;51.386;0.016;2024-01-16T13:42:38;8.10;75.80
25360;DHT22;13311;51.386;0.016;2024-01-16T13:47:40;8.10;75.70
25360;DHT22;13311;51.386;0.016;2024-01-16T13:52:41;8.00;75.90
25360;DHT22;13311;51.386;0.016;2024-01-16T13:57:42;7.90;76.60
25360;DHT22;13311;51.386;0.016;2024-01-16T14:02:44;7.90;77.20
25360;DHT22;13311;51.386;0.016;2024-01-16T14:07:48;7.70;77.00
25360;DHT22;13311;51.386;0.016;2024-01-16T14:12:53;7.70;77.20
25360;DHT22;13311;51.386;0.016;2024-01-16T14:17:55;7.80;78.10
25360;DHT22;13311;51.386;0.016;2024-01-16T14:22:57;7.70;77.10
25360;DHT22;13311;51.386;0.016;2024-01-16T14:33:01;7.50;77.80
25360;DHT22;13311;51.386;0.016;2024-01-16T14:38:02;7.60;78.00
25360;DHT22;13311;51.386;0.016;2024-01-16T14:43:03;7.60;77.50
25360;DHT22;13311;51.386;0.016;2024-01-16T14:48:04;7.70;77.20
25360;DHT22;13311;51.386;0.016;2024-01-16T14:53:05;7.50;77.10
25360;DHT22;13311;51.386;0.016;2024-01-16T14:58:07;7.40;77.80
25360;DHT22;13311;51.386;0.016;2024-01-16T15:03:08;7.20;77.70
25360;DHT22;13311;51.386;0.016;2024-01-16T15:08:09;7.00;78.40
25360;DHT22;13311;51.386;0.016;2024-01-16T15:13:10;6.90;78.30
25360;DHT22;13311;51.386;0.016;2024-01-16T15:18:12;6.70;78.80
25360;DHT22;13311;51.386;0.016;2024-01-16T15:23:13;6.70;79.20
25360;DHT22;13311;51.386;0.016;2024-01-16T15:28:14;6.60;79.20
25360;DHT22;13311;51.386;0.016;2024-01-16T15:33:15;6.40;80.10
25360;DHT22;13311;51.386;0.016;2024-01-16T15:38:16;6.40;80.20
25360;DHT22;13311;51.386;0.016;2024-01-16T15:43:16;6.30;80.40
25360;DHT22;13311;51.386;0.016;2024-01-16T15:48:18;6.30;81.00
25360;DHT22;13311;51.386;0.016;2024-01-16T15:53:19;6.20;80.70
25360;DHT22;13311;51.386;0.016;2024-01-16T15:58:20;6.00;81.10
25360;DHT22;13311;51.386;0.016;2024-01-16T16:03:21;6.00;81.20
25360;DHT22;13311;51.386;0.016;2024-01-16T16:08:22;5.90;81.60
25360;DHT22;13311;51.386;0.016;2024-01-16T16:13:23;5.80;81.70
25360;DHT22;13311;51.386;0.016;2024-01-16T16:18:24;5.70;81.90
25360;DHT22;13311;51.386;0.016;2024-01-16T16:23:25;5.70;82.20
25360;DHT22;13311;51.386;0.016;2024-01-16T16:28:26;5.60;82.60
25360;DHT22;13311;51.386;0.016;2024-01-16T16:33:27;5.50;82.80
25360;DHT22;13311;51.386;0.016;2024-01-16T16:38:27;5.40;83.20
25360;DHT22;13311;51.386;0.016;2024-01-16T16:43:28;5.30;83.70
25360;DHT22;13311;51.386;0.016;2024-01-16T16:48:29;5.10;84.00
25360;DHT22;13311;51.386;0.016;2024-01-16T16:53:29;5.10;84.70
25360;DHT22;13311;51.386;0.016;2024-01-16T16:58:30;5.00;85.00
25360;DHT22;13311;51.386;0.016;2024-01-16T17:03:31;4.90;85.60
25360;DHT22;13311;51.386;0.016;2024-01-16T17:08:35;4.80;85.80
25360;DHT22;13311;51.386;0.016;2024-01-16T17:13:41;4.70;86.20
25360;DHT22;13311;51.386;0.016;2024-01-16T17:18:43;4.60;86.60
25360;DHT22;13311;51.386;0.016;2024-01-16T17:23:44;4.60;87.00
25360;DHT22;13311;51.386;0.016;2024-01-16T17:28:45;4.50;87.20
25360;DHT22;13311;51.386;0.016;2024-01-16T17:33:45;4.40;87.70
25360;DHT22;13311;51.386;0.016;2024-01-16T17:38:46;4.30;87.90
25360;DHT22;13311;51.386;0.016;2024-01-16T17:43:47;4.20;88.40
25360;DHT22;13311;51.386;0.016;2024-01-16T17:48:48;4.20;88.60
25360;DHT22;13311;51.386;0.016;2024-01-16T17:53:49;4.10;88.80
25360;DHT22;13311;51.386;0.016;2024-01-16T17:58:50;4.00;89.00
25360;DHT22;13311;51.386;0.016;2024-01-16T18:03:51;3.90;89.00
25360;DHT22;13311;51.386;0.016;2024-01-16T18:08:53;3.90;89.30
25360;DHT22;13311;51.386;0.016;2024-01-16T18:13:53;3.80;89.10
25360;DHT22;13311;51.386;0.016;2024-01-16T18:18:55;3.80;89.20
25360;DHT22;13311;51.386;0.016;2024-01-16T18:23:56;3.70;89.00
25360;DHT22;13311;51.386;0.016;2024-01-16T18:28:57;3.70;88.90
25360;DHT22;13311;51.386;0.016;2024-01-16T18:33:59;3.60;88.80
25360;DHT22;13311;51.386;0.016;2024-01-16T18:39:00;3.70;89.00
25360;DHT22;13311;51.386;0.016;2024-01-16T18:44:00;3.60;89.10
25360;DHT22;13311;51.386;0.016;2024-01-16T18:49:01;3.60;89.10
25360;DHT22;13311;51.386;0.016;2024-01-16T18:54:02;3.60;89.20
25360;DHT22;13311;51.386;0.016;2024-01-16T18:59:03;3.50;89.50
25360;DHT22;13311;51.386;0.016;2024-01-16T19:04:05;3.50;89.70
25360;DHT22;13311;51.386;0.016;2024-01-16T19:09:06;3.40;89.70
25360;DHT22;13311;51.386;0.016;2024-01-16T19:14:10;3.40;89.90
25360;DHT22;13311;51.386;0.016;2024-01-16T19:19:11;3.40;90.00
25360;DHT22;13311;51.386;0.016;2024-01-16T19:24:11;3.30;90.00
25360;DHT22;13311;51.386;0.016;2024-01-16T19:29:13;3.30;90.00
25360;DHT22;13311;51.386;0.016;2024-01-16T19:34:14;3.30;90.20
25360;DHT22;13311;51.386;0.016;2024-01-16T19:39:15;3.20;90.20
25360;DHT22;13311;51.386;0.016;2024-01-16T19:44:16;3.20;90.10
25360;DHT22;13311;51.386;0.016;2024-01-16T19:49:17;3.20;90.40
25360;DHT22;13311;51.386;0.016;2024-01-16T19:54:17;3.20;90.50
25360;DHT22;13311;51.386;0.016;2024-01-16T19:59:18;3.10;90.60
25360;DHT22;13311;51.386;0.016;2024-01-16T20:04:19;3.00;90.80
25360;DHT22;13311;51.386;0.016;2024-01-16T20:09:20;3.00;90.90
25360;DHT22;13311;51.386;0.016;2024-01-16T20:14:21;2.90;90.90
25360;DHT22;13311;51.386;0.016;2024-01-16T20:19:22;2.80;91.00
25360;DHT22;13311;51.386;0.016;2024-01-16T20:24:23;2.80;91.10
25360;DHT22;13311;51.386;0.016;2024-01-16T20:29:24;2.70;91.20
25360;DHT22;13311;51.386;0.016;2024-01-16T20:34:26;2.70;91.20
25360;DHT22;13311;51.386;0.016;2024-01-16T20:39:27;2.60;91.40
25360;DHT22;13311;51.386;0.016;2024-01-16T20:44:28;2.50;91.50
25360;DHT22;13311;51.386;0.016;2024-01-16T20:49:32;2.50;91.50
25360;DHT22;13311;51.386;0.016;2024-01-16T20:54:37;2.50;91.50
25360;DHT22;13311;51.386;0.016;2024-01-16T20:59:40;2.50;91.70
25360;DHT22;13311;51.386;0.016;2024-01-16T21:04:41;2.40;91.70
25360;DHT22;13311;51.386;0.016;2024-01-16T21:09:42;2.40;91.80
25360;DHT22;13311;51.386;0.016;2024-01-16T21:14:43;2.30;91.80
25360;DHT22;13311;51.386;0.016;2024-01-16T21:19:45;2.20;92.00
25360;DHT22;13311;51.386;0.016;2024-01-16T21:24:45;2.20;92.10
25360;DHT22;13311;51.386;0.016;2024-01-16T21:29:46;2.20;92.20
25360;DHT22;13311;51.386;0.016;2024-01-16T21:34:48;2.10;92.20
25360;DHT22;13311;51.386;0.016;2024-01-16T21:39:49;2.10;92.30
25360;DHT22;13311;51.386;0.016;2024-01-16T21:44:50;2.10;92.40
25360;DHT22;13311;51.386;0.016;2024-01-16T21:49:52;2.10;92.50
25360;DHT22;13311;51.386;0.016;2024-01-16T21:54:52;2.10;92.50
25360;DHT22;13311;51.386;0.016;2024-01-16T21:59:53;2.00;92.50
25360;DHT22;13311;51.386;0.016;2024-01-16T22:04:54;2.00;92.50
25360;DHT22;13311;51.386;0.016;2024-01-16T22:09:55;2.00;92.60
25360;DHT22;13311;51.386;0.016;2024-01-16T22:14:56;2.00;92.70
25360;DHT22;13311;51.386;0.016;2024-01-16T22:19:57;1.90;92.70
25360;DHT22;13311;51.386;0.016;2024-01-16T22:24:58;1.90;92.70
25360;DHT22;13311;51.386;0.016;2024-01-16T22:29:59;1.90;92.70
25360;DHT22;13311;51.386;0.016;2024-01-16T22:35:00;1.90;92.80
25360;DHT22;13311;51.386;0.016;2024-01-16T22:40:01;2.00;92.80
25360;DHT22;13311;51.386;0.016;2024-01-16T22:45:05;2.00;92.80
25360;DHT22;13311;51.386;0.016;2024-01-16T22:50:07;2.10;92.80
25360;DHT22;13311;51.386;0.016;2024-01-16T22:55:09;2.20;92.90
25360;DHT22;13311;51.386;0.016;2024-01-16T23:00:10;2.20;92.80
25360;DHT22;13311;51.386;0.016;2024-01-16T23:05:20;2.30;92.80
25360;DHT22;13311;51.386;0.016;2024-01-16T23:10:23;2.30;92.70
25360;DHT22;13311;51.386;0.016;2024-01-16T23:15:26;2.30;92.70
25360;DHT22;13311;51.386;0.016;2024-01-16T23:20:26;2.40;92.70
25360;DHT22;13311;51.386;0.016;2024-01-16T23:25:31;2.40;92.80
25360;DHT22;13311;51.386;0.016;2024-01-16T23:30:31;2.50;92.80
25360;DHT22;13311;51.386;0.016;2024-01-16T23:35:32;2.60;92.70
25360;DHT22;13311;51.386;0.016;2024-01-16T23:40:33;2.60;92.80
25360;DHT22;13311;51.386;0.016;2024-01-16T23:45:33;2.70;93.00
25360;DHT22;13311;51.386;0.016;2024-01-16T23:50:36;2.80;92.90
25360;DHT22;13311;51.386;0.016;2024-01-16T23:55:38;2.90;92.90
